Time;durP1;ratioP1;P1;durP2;ratioP2;P2;SDS_P1;SDS_P2;PMS_P1;PMS_P2;Temp;Humidity;BMP_temperature;BMP_pressure;BME280_temperature;BME280_humidity;BME280_pressure;Samples;Min_cycle;Max_cycle;Signal;HPM_P1;HPM_P2
2022/01/15 00:02:03;;;;;;;55.50;34.67;;;;;;;2.94;98.62;103150.97;5043885;28;20036;-74
2022/01/15 00:04:28;;;;;;;69.68;37.88;;;;;;;2.92;98.30;103139.44;5041343;28;20033;-75
2022/01/15 00:06:54;;;;;;;76.85;39.72;;;;;;;2.91;98.63;103139.44;5041009;28;20116;-74
2022/01/15 00:09:19;;;;;;;58.80;35.28;;;;;;;2.92;98.63;103134.13;5042090;28;20048;-75
2022/01/15 00:11:44;;;;;;;53.83;34.40;;;;;;;2.92;99.18;103135.91;5042201;28;20346;-75
2022/01/15 00:14:20;;;;;;;78.88;38.22;;;;;;;2.91;99.00;103142.97;5043109;28;20407;-74
2022/01/15 00:16:48;;;;;;;75.85;36.80;;;;;;;2.91;98.73;103142.97;5044094;28;20028;-74
2022/01/15 00:19:16;;;;;;;61.72;36.10;;;;;;;2.90;98.62;103138.56;5042849;28;20357;-74
2022/01/15 00:21:41;;;;;;;76.30;37.40;;;;;;;2.91;98.93;103136.78;5029967;28;20025;-74
2022/01/15 00:24:07;;;;;;;83.80;35.20;;;;;;;2.88;99.11;103137.69;5030813;28;20083;-75
2022/01/15 00:26:33;;;;;;;70.22;36.90;;;;;;;2.88;99.20;103131.50;5030434;28;20111;-74
2022/01/15 00:28:59;;;;;;;76.57;37.30;;;;;;;2.87;99.33;103124.41;5028669;28;20079;-73
2022/01/15 00:31:24;;;;;;;79.97;38.05;;;;;;;2.88;99.02;103120.88;5038521;28;20021;-74
2022/01/15 00:33:50;;;;;;;67.82;35.97;;;;;;;2.86;99.08;103122.66;5046332;28;20040;-74
2022/01/15 00:36:16;;;;;;;71.75;37.53;;;;;;;2.88;99.29;103126.19;5031570;28;20469;-75
2022/01/15 00:38:42;;;;;;;60.55;32.00;;;;;;;2.89;99.20;103122.66;5030566;28;20503;-74
2022/01/15 00:41:07;;;;;;;64.05;34.67;;;;;;;2.87;98.81;103119.09;5032755;28;20029;-75
2022/01/15 00:43:32;;;;;;;60.35;33.90;;;;;;;2.87;98.63;103117.34;5041659;28;20029;-74
2022/01/15 00:45:58;;;;;;;59.58;31.73;;;;;;;2.85;98.71;103110.28;5030684;28;20017;-74
2022/01/15 00:48:24;;;;;;;50.22;30.75;;;;;;;2.86;98.61;103106.72;5029151;28;20026;-74
2022/01/15 00:50:50;;;;;;;67.13;34.45;;;;;;;2.83;98.41;103109.41;5028819;28;20025;-74
2022/01/15 00:53:15;;;;;;;69.32;33.83;;;;;;;2.82;98.67;103108.50;5029981;28;20045;-75
2022/01/15 00:55:41;;;;;;;72.10;34.75;;;;;;;2.79;98.57;103103.19;5030097;28;20448;-74
2022/01/15 00:58:06;;;;;;;57.30;31.95;;;;;;;2.77;98.70;103102.34;5031035;28;20056;-74
2022/01/15 01:00:31;;;;;;;66.15;32.65;;;;;;;2.74;98.96;103094.41;5031453;28;20051;-74
2022/01/15 01:02:57;;;;;;;69.45;30.02;;;;;;;2.74;99.06;103092.59;5049567;28;20036;-74
2022/01/15 01:05:22;;;;;;;58.85;32.47;;;;;;;2.74;99.11;103091.75;5033515;28;20112;-74
2022/01/15 01:07:49;;;;;;;81.45;32.70;;;;;;;2.71;98.43;103089.06;5028710;28;20021;-73
2022/01/15 01:13:08;;;;;;;59.13;31.23;;;;;;;2.70;98.34;103090.84;5030332;28;20030;-74
2022/01/15 01:23:43;;;;;;;62.45;27.55;;;;;;;2.65;98.57;103082.03;5012292;28;20037;-74
2022/01/15 01:26:23;;;;;;;62.60;27.95;;;;;;;2.65;98.42;103075.81;5029006;28;20025;-74
2022/01/15 01:28:57;;;;;;;62.58;29.00;;;;;;;2.65;98.59;103067.84;5030337;28;20469;-74
2022/01/15 01:31:31;;;;;;;52.63;27.45;;;;;;;2.61;98.48;103072.31;5037768;28;20062;-74
2022/01/15 01:34:05;;;;;;;73.30;30.88;;;;;;;2.59;98.29;103071.41;5043739;28;20223;-73
2022/01/15 01:39:08;;;;;;;58.60;27.30;;;;;;;2.57;98.11;103073.22;5023865;28;20033;-74
2022/01/15 01:41:36;;;;;;;56.28;29.02;;;;;;;2.54;97.77;103076.75;5028899;28;20037;-74
2022/01/15 01:44:04;;;;;;;47.92;27.83;;;;;;;2.54;98.38;103071.44;5028251;28;20444;-74
2022/01/15 01:46:46;;;;;;;59.53;29.58;;;;;;;2.52;98.22;103067.94;5028602;28;20048;-74
2022/01/15 01:49:13;;;;;;;46.08;24.77;;;;;;;2.51;98.27;103059.97;5015965;28;20026;-74
2022/01/15 01:51:39;;;;;;;49.75;27.85;;;;;;;2.51;98.46;103057.31;5028096;28;20037;-74
2022/01/15 01:54:07;;;;;;;56.38;27.30;;;;;;;2.48;98.31;103054.69;5040403;28;20486;-74
2022/01/15 01:56:32;;;;;;;55.08;30.30;;;;;;;2.48;98.48;103049.38;5030525;28;20029;-74
2022/01/15 01:58:59;;;;;;;51.35;26.05;;;;;;;2.48;98.83;103049.38;5028607;28;20401;-74
2022/01/15 02:01:24;;;;;;;54.75;24.38;;;;;;;2.50;98.85;103055.53;5037655;28;20036;-77
2022/01/15 02:03:50;;;;;;;54.25;26.33;;;;;;;2.50;98.83;103055.53;5045538;28;20051;-77
2022/01/15 02:06:17;;;;;;;55.75;27.55;;;;;;;2.51;99.00;103058.19;5029535;28;20028;-77
2022/01/15 02:08:42;;;;;;;52.30;26.95;;;;;;;2.52;98.70;103049.34;5028934;28;20458;-77
2022/01/15 02:11:07;;;;;;;53.58;27.10;;;;;;;2.53;98.73;103047.56;5027490;28;20122;-77
2022/01/15 02:13:37;;;;;;;50.55;26.90;;;;;;;2.52;98.58;103048.44;5028272;28;20109;-77
2022/01/15 02:16:02;;;;;;;58.15;28.52;;;;;;;2.52;98.79;103048.44;5026875;28;20021;-77
2022/01/15 02:18:27;;;;;;;51.78;27.05;;;;;;;2.49;98.49;103044.06;5028627;28;20470;-77
2022/01/15 02:23:43;;;;;;;46.92;26.85;;;;;;;2.48;98.72;103030.78;5019863;28;20037;-77
2022/01/15 02:26:12;;;;;;;56.88;26.45;;;;;;;2.48;98.77;103046.72;5026985;28;20055;-77
2022/01/15 02:28:40;;;;;;;51.53;25.70;;;;;;;2.47;98.72;103042.28;5029225;28;20033;-77
2022/01/15 02:31:17;;;;;;;55.38;25.70;;;;;;;2.47;98.76;103035.19;5033018;28;20033;-77
2022/01/15 02:33:44;;;;;;;43.80;24.83;;;;;;;2.44;98.49;103030.78;5036563;28;20433;-77
2022/01/15 02:36:15;;;;;;;48.05;25.15;;;;;;;2.43;98.29;103029.03;5028580;28;20033;-77
2022/01/15 02:38:42;;;;;;;57.67;22.80;;;;;;;2.40;98.22;103021.09;5027250;28;20164;-77
2022/01/15 02:41:08;;;;;;;47.45;23.92;;;;;;;2.39;98.28;103019.31;5026983;28;20443;-77
2022/01/15 02:43:34;;;;;;;43.75;23.85;;;;;;;2.40;98.35;103007.81;5026788;28;20195;-77
2022/01/15 02:46:35;;;;;;;50.88;23.52;;;;;;;2.42;98.38;102997.19;5028874;28;20036;-77
2022/01/15 02:48:58;;;;;;;47.80;24.38;;;;;;;2.41;98.33;102992.75;5027391;28;20034;-77
2022/01/15 02:51:29;;;;;;;42.60;21.33;;;;;;;2.41;98.13;102992.75;5027575;28;20037;-77
2022/01/15 02:53:57;;;;;;;44.58;21.98;;;;;;;2.40;98.13;102978.63;5028445;28;20430;-77
2022/01/15 02:56:26;;;;;;;52.80;23.05;;;;;;;2.40;98.31;102985.69;5028155;28;20033;-77
2022/01/15 02:58:53;;;;;;;43.75;22.70;;;;;;;2.35;98.15;102977.75;5027565;28;20440;-77
2022/01/15 03:01:19;;;;;;;41.58;21.63;;;;;;;2.36;98.28;102976.00;5034671;28;20474;-77
2022/01/15 03:03:44;;;;;;;44.65;22.95;;;;;;;2.36;98.56;102976.88;5040082;28;20029;-76
2022/01/15 03:06:18;;;;;;;43.45;23.13;;;;;;;2.33;98.59;102966.28;5040031;28;20446;-77
2022/01/15 03:08:45;;;;;;;48.70;22.75;;;;;;;2.31;98.31;102970.69;5025983;28;20065;-77
2022/01/15 03:11:11;;;;;;;42.20;22.05;;;;;;;2.31;98.11;102978.63;5026939;28;20334;-77
2022/01/15 03:13:38;;;;;;;45.00;23.15;;;;;;;2.27;97.99;102972.47;5028006;28;20025;-77
2022/01/15 03:16:05;;;;;;;47.17;22.05;;;;;;;2.25;97.90;102963.63;5027858;28;20029;-77
2022/01/15 03:18:30;;;;;;;44.03;21.15;;;;;;;2.24;97.83;102966.28;5025503;28;20018;-77
2022/01/15 03:20:55;;;;;;;47.72;19.83;;;;;;;2.25;98.24;102970.72;5019594;28;20029;-77
2022/01/15 03:23:21;;;;;;;39.13;20.42;;;;;;;2.24;97.62;102972.50;5009276;28;20109;-77
2022/01/15 03:25:46;;;;;;;38.92;19.40;;;;;;;2.24;97.84;102966.28;5028277;28;20056;-77
2022/01/15 03:28:11;;;;;;;52.65;22.30;;;;;;;2.22;97.92;102966.28;5025642;28;20099;-76
2022/01/15 03:30:37;;;;;;;39.03;19.05;;;;;;;2.24;97.90;102960.97;5029921;28;20076;-76
2022/01/15 03:33:02;;;;;;;40.90;19.55;;;;;;;2.26;98.40;102962.75;5046078;28;20034;-76
2022/01/15 03:35:28;;;;;;;40.70;20.55;;;;;;;2.27;98.23;102963.66;5026792;28;20048;-76
2022/01/15 03:37:53;;;;;;;47.75;20.63;;;;;;;2.24;98.07;102956.59;5025933;28;20615;-76
2022/01/15 03:40:19;;;;;;;44.45;22.10;;;;;;;2.24;98.10;102958.34;5025788;28;20147;-77
2022/01/15 03:42:44;;;;;;;39.42;19.83;;;;;;;2.24;98.02;102964.53;5025810;28;20129;-77
2022/01/15 03:45:12;;;;;;;52.40;21.50;;;;;;;2.25;98.33;102949.50;5025861;28;20362;-77
2022/01/15 03:47:37;;;;;;;43.17;20.83;;;;;;;2.28;98.77;102949.47;5028624;28;20040;-77
2022/01/15 03:50:03;;;;;;;38.95;20.63;;;;;;;2.27;98.67;102942.44;5025485;28;20439;-77
2022/01/15 03:52:28;;;;;;;44.20;21.70;;;;;;;2.25;98.23;102942.41;5025266;28;20327;-77
2022/01/15 03:54:54;;;;;;;48.28;21.55;;;;;;;2.24;98.28;102927.41;5028095;28;20032;-77
2022/01/15 03:57:19;;;;;;;47.88;21.50;;;;;;;2.23;98.51;102924.75;5030456;28;20485;-77
2022/01/15 03:59:44;;;;;;;39.33;20.08;;;;;;;2.24;98.36;102922.09;5031067;28;20029;-77
2022/01/15 04:02:10;;;;;;;48.22;21.45;;;;;;;2.21;98.22;102924.75;5045713;28;20485;-77
2022/01/15 04:04:35;;;;;;;39.78;20.27;;;;;;;2.17;97.95;102925.66;5038309;28;20029;-77
2022/01/15 04:07:00;;;;;;;36.95;17.65;;;;;;;2.15;97.94;102934.50;5029124;28;20605;-77
2022/01/15 04:09:25;;;;;;;38.95;18.98;;;;;;;2.14;97.97;102932.72;5029777;28;20050;-77
2022/01/15 04:11:51;;;;;;;41.58;19.05;;;;;;;2.15;98.06;102945.13;5030096;28;20512;-77
2022/01/15 04:14:16;;;;;;;42.70;18.88;;;;;;;2.11;97.98;102928.34;5030648;28;20108;-77
2022/01/15 04:16:42;;;;;;;40.38;18.73;;;;;;;2.13;98.08;102925.69;5037201;28;20028;-77
2022/01/15 04:19:08;;;;;;;47.88;20.17;;;;;;;2.13;98.13;102921.25;5033113;28;20147;-77
2022/01/15 04:21:34;;;;;;;38.20;18.63;;;;;;;2.12;98.04;102919.47;5026281;28;20067;-77
2022/01/15 04:24:00;;;;;;;38.75;18.85;;;;;;;2.13;98.42;102915.06;5019541;28;20021;-77
2022/01/15 04:26:26;;;;;;;41.40;20.67;;;;;;;2.12;98.06;102913.31;5030202;28;20044;-77
2022/01/15 04:28:55;;;;;;;44.13;20.10;;;;;;;2.12;98.13;102913.31;5030728;28;20052;-77
2022/01/15 04:31:21;;;;;;;49.15;23.10;;;;;;;2.14;98.28;102903.56;5039105;28;20025;-77
2022/01/15 04:33:47;;;;;;;43.63;22.10;;;;;;;2.14;98.13;102906.19;5044431;28;20021;-77
2022/01/15 04:36:13;;;;;;;40.88;21.73;;;;;;;2.14;98.49;102904.44;5030348;28;20061;-77
2022/01/15 04:38:39;;;;;;;40.85;21.73;;;;;;;2.14;98.27;102906.19;5030107;28;20111;-77
2022/01/15 04:41:06;;;;;;;39.20;20.98;;;;;;;2.14;98.16;102900.91;5030224;28;20095;-77
2022/01/15 04:43:32;;;;;;;46.13;22.23;;;;;;;2.14;98.38;102892.94;5030047;28;20124;-77
2022/01/15 04:45:57;;;;;;;39.00;20.48;;;;;;;2.15;98.20;102892.06;5030616;28;20200;-77
2022/01/15 04:48:22;;;;;;;43.28;21.50;;;;;;;2.15;97.66;102889.41;5030462;28;20144;-77
2022/01/15 04:50:48;;;;;;;46.83;21.60;;;;;;;2.15;97.82;102895.59;5031380;28;20494;-77
2022/01/15 04:53:13;;;;;;;42.50;19.90;;;;;;;2.17;98.11;102890.31;5028356;28;20029;-77
2022/01/15 04:55:39;;;;;;;43.25;21.73;;;;;;;2.16;98.12;102885.88;5030138;28;20037;-77
2022/01/15 04:58:05;;;;;;;44.55;21.70;;;;;;;2.17;97.65;102882.34;5028546;28;20481;-77
2022/01/15 05:00:31;;;;;;;42.40;20.92;;;;;;;2.17;97.53;102874.38;5030122;28;20108;-76
2022/01/15 05:02:57;;;;;;;38.88;21.40;;;;;;;2.18;97.84;102871.72;5048993;28;20120;-76
2022/01/15 05:05:23;;;;;;;36.42;19.30;;;;;;;2.19;98.08;102875.25;5029483;28;20037;-76
2022/01/15 05:07:49;;;;;;;39.78;21.27;;;;;;;2.20;97.92;102866.41;5029974;28;20041;-76
2022/01/15 05:10:17;;;;;;;42.13;22.30;;;;;;;2.20;97.89;102871.72;5028993;28;20037;-76
2022/01/15 05:12:44;;;;;;;40.40;19.55;;;;;;;2.21;97.85;102868.16;5028342;28;20120;-76
2022/01/15 05:15:12;;;;;;;40.40;21.35;;;;;;;2.21;97.85;102868.16;5027491;28;20041;-77
2022/01/15 05:17:38;;;;;;;45.13;20.70;;;;;;;2.21;97.58;102862.84;5030003;28;20025;-76
2022/01/15 05:20:05;;;;;;;43.40;21.58;;;;;;;2.19;97.57;102859.31;5027663;28;20074;-77
2022/01/15 05:22:31;;;;;;;38.00;20.98;;;;;;;2.18;97.90;102853.16;5010398;28;20087;-77
2022/01/15 05:24:56;;;;;;;45.10;21.92;;;;;;;2.15;97.31;102858.44;5030730;28;20032;-77
2022/01/15 05:27:21;;;;;;;53.38;23.23;;;;;;;2.15;97.62;102852.28;5034308;28;20029;-77
2022/01/15 05:29:47;;;;;;;36.75;19.65;;;;;;;2.16;97.65;102848.75;5027996;28;20035;-77
2022/01/15 05:32:12;;;;;;;51.80;21.50;;;;;;;2.18;97.78;102839.00;5033420;28;20763;-76
2022/01/15 05:34:37;;;;;;;48.85;23.40;;;;;;;2.17;97.82;102845.19;5019319;28;20037;-77
2022/01/15 05:37:03;;;;;;;44.65;22.80;;;;;;;2.15;97.95;102831.06;5029271;28;20496;-77
2022/01/15 05:39:28;;;;;;;49.70;22.35;;;;;;;2.15;97.95;102826.63;5027225;28;20167;-77
2022/01/15 05:41:54;;;;;;;44.20;22.63;;;;;;;2.14;97.76;102826.63;5029662;28;20049;-77
2022/01/15 05:44:19;;;;;;;43.53;23.23;;;;;;;2.15;97.66;102826.63;5027673;28;20390;-77
2022/01/15 05:46:45;;;;;;;51.28;24.63;;;;;;;2.15;98.13;102815.13;5030407;28;20021;-77
2022/01/15 05:49:10;;;;;;;42.10;23.23;;;;;;;2.17;97.87;102818.69;5028763;28;20052;-77
2022/01/15 05:51:36;;;;;;;40.60;23.33;;;;;;;2.16;97.41;102816.91;5028591;28;20029;-77
2022/01/15 05:54:10;;;;;;;55.78;24.60;;;;;;;2.15;98.05;102815.13;5027500;28;20013;-77
2022/01/15 05:56:36;;;;;;;45.63;23.05;;;;;;;2.18;98.29;102812.47;5029221;28;20021;-77
2022/01/15 05:59:02;;;;;;;44.85;21.23;;;;;;;2.18;97.96;102815.09;5028816;28;20041;-77
2022/01/15 06:01:27;;;;;;;40.22;18.02;;;;;;;2.15;97.48;102810.69;5028891;28;20114;-77
2022/01/15 06:03:53;;;;;;;48.78;19.60;;;;;;;2.14;97.42;102808.06;5028745;28;20465;-76
2022/01/15 06:06:19;;;;;;;45.85;23.38;;;;;;;2.12;97.60;102804.53;5026659;28;20660;-76
2022/01/15 06:08:44;;;;;;;42.05;21.77;;;;;;;2.14;97.88;102797.44;5026348;28;20109;-76
2022/01/15 06:11:11;;;;;;;55.65;21.73;;;;;;;2.12;97.84;102792.16;5028311;28;20056;-77
2022/01/15 06:13:36;;;;;;;42.17;21.83;;;;;;;2.10;97.31;102800.13;5028417;28;20021;-77
2022/01/15 06:16:01;;;;;;;43.92;20.98;;;;;;;2.10;97.46;102797.47;5028293;28;20397;-77
2022/01/15 06:18:26;;;;;;;38.38;19.05;;;;;;;2.08;97.72;102796.63;5026367;28;20029;-77
2022/01/15 06:20:52;;;;;;;34.80;17.30;;;;;;;2.07;97.40;102792.19;5023592;28;20091;-77
2022/01/15 06:23:17;;;;;;;37.92;19.10;;;;;;;2.06;97.60;102794.84;5009205;28;20073;-77
2022/01/15 06:25:42;;;;;;;53.40;21.60;;;;;;;2.07;97.78;102792.19;5027200;28;20088;-77
2022/01/15 06:28:07;;;;;;;45.40;20.20;;;;;;;2.04;97.47;102792.22;5028694;28;20029;-77
2022/01/15 06:30:33;;;;;;;52.10;20.02;;;;;;;2.03;98.00;102787.78;5032284;28;20037;-76
2022/01/15 06:32:58;;;;;;;46.22;22.05;;;;;;;2.01;97.94;102791.38;5047369;28;20064;-77
2022/01/15 06:35:23;;;;;;;42.08;19.98;;;;;;;2.01;97.73;102788.72;5031671;28;20347;-77
2022/01/15 06:37:49;;;;;;;49.95;18.90;;;;;;;2.01;97.95;102786.06;5026621;28;20033;-77
2022/01/15 06:40:16;;;;;;;50.20;21.67;;;;;;;2.02;98.05;102788.69;5027471;28;20029;-77
2022/01/15 06:42:42;;;;;;;46.20;19.67;;;;;;;2.01;98.45;102786.94;5027947;28;20097;-77
2022/01/15 06:45:08;;;;;;;38.00;20.27;;;;;;;2.02;98.32;102788.69;5028073;28;20105;-77
2022/01/15 06:47:33;;;;;;;41.47;21.52;;;;;;;2.02;98.13;102788.69;5027915;28;20557;-77
2022/01/15 06:50:04;;;;;;;44.78;20.92;;;;;;;2.04;98.10;102786.91;5027850;28;20042;-77
2022/01/15 06:52:30;;;;;;;55.42;20.38;;;;;;;2.03;98.30;102779.84;5025597;28;20029;-77
2022/01/15 06:54:55;;;;;;;47.78;20.80;;;;;;;2.05;98.56;102780.72;5026639;28;20449;-77
2022/01/15 06:57:21;;;;;;;80.47;21.10;;;;;;;2.06;98.18;102785.13;5028022;28;20029;-77
2022/01/15 06:59:46;;;;;;;64.63;21.63;;;;;;;2.04;98.05;102786.91;5027655;28;20454;-77
2022/01/15 07:02:11;;;;;;;47.58;19.90;;;;;;;2.02;98.14;102788.69;5027997;28;20033;-77
2022/01/15 07:04:37;;;;;;;55.35;21.45;;;;;;;2.02;98.41;102787.81;5024414;28;20087;-77
2022/01/15 07:07:03;;;;;;;59.55;20.25;;;;;;;2.00;98.50;102779.84;5026905;28;20485;-77
2022/01/15 07:09:28;;;;;;;70.05;21.25;;;;;;;1.99;98.39;102783.41;5027168;28;20136;-77
2022/01/15 07:11:53;;;;;;;66.43;22.00;;;;;;;1.99;98.88;102788.72;5028320;28;20021;-77
2022/01/15 07:14:19;;;;;;;73.35;22.15;;;;;;;1.98;98.60;102786.94;5026238;28;20408;-77
2022/01/15 07:16:44;;;;;;;55.70;19.88;;;;;;;1.99;98.42;102785.16;5026291;28;20037;-77
2022/01/15 07:19:09;;;;;;;56.47;21.73;;;;;;;1.99;98.64;102785.16;5027008;28;20029;-77
2022/01/15 07:21:34;;;;;;;61.92;18.33;;;;;;;1.98;98.33;102780.78;5026210;28;20053;-77
2022/01/15 07:24:00;;;;;;;64.28;19.33;;;;;;;1.96;98.32;102778.09;5027698;28;20036;-77
2022/01/15 07:26:25;;;;;;;55.28;16.77;;;;;;;1.96;98.57;102780.75;5020015;28;20037;-77
2022/01/15 07:28:51;;;;;;;80.32;17.88;;;;;;;1.95;98.28;102775.47;5012869;28;20064;-77
2022/01/15 07:31:16;;;;;;;60.22;18.52;;;;;;;1.94;98.46;102782.56;5030950;28;20025;-77
2022/01/15 07:33:41;;;;;;;48.75;17.08;;;;;;;1.94;98.32;102781.69;5026873;28;20029;-77
2022/01/15 07:36:07;;;;;;;55.38;15.50;;;;;;;1.91;98.35;102775.50;5030142;28;20025;-77
2022/01/15 07:38:32;;;;;;;55.33;16.13;;;;;;;1.90;98.06;102778.16;5030355;28;20029;-77
2022/01/15 07:40:58;;;;;;;47.63;14.88;;;;;;;1.89;97.94;102779.06;5032917;28;20037;-77
2022/01/15 07:43:24;;;;;;;79.45;16.13;;;;;;;1.85;97.64;102782.63;5042592;28;20478;-77
2022/01/15 07:45:50;;;;;;;61.88;16.92;;;;;;;1.82;97.46;102786.16;5032636;28;20045;-77
2022/01/15 07:48:15;;;;;;;32.63;15.82;;;;;;;1.83;97.67;102787.03;5031062;28;20051;-77
2022/01/15 07:50:40;;;;;;;39.33;15.07;;;;;;;1.81;97.51;102789.69;5029420;28;20049;-77
2022/01/15 07:53:06;;;;;;;49.22;14.85;;;;;;;1.81;97.86;102788.81;5029723;28;20116;-77
2022/01/15 07:55:31;;;;;;;49.92;15.65;;;;;;;1.80;97.78;102798.56;5031075;28;20473;-77
2022/01/15 07:57:57;;;;;;;49.13;14.43;;;;;;;1.78;97.71;102796.78;5029324;28;20029;-77
2022/01/15 08:00:22;;;;;;;52.00;15.55;;;;;;;1.78;97.90;102794.13;5030012;28;20108;-77
2022/01/15 08:02:47;;;;;;;47.60;14.85;;;;;;;1.80;97.96;102800.31;5034468;28;20037;-77
2022/01/15 08:05:13;;;;;;;37.55;13.77;;;;;;;1.78;97.79;102799.44;5030455;28;20056;-76
2022/01/15 08:07:43;;;;;;;38.60;14.98;;;;;;;1.75;97.97;102795.03;5022958;28;20321;-76
2022/01/15 08:10:09;;;;;;;68.65;17.65;;;;;;;1.75;97.67;102798.56;5039845;28;20041;-77
2022/01/15 08:12:41;;;;;;;54.33;14.55;;;;;;;1.74;97.17;102794.16;5034144;28;20048;-77
2022/01/15 08:15:07;;;;;;;103.47;17.00;;;;;;;1.70;97.33;102788.88;5029383;28;20045;-77
2022/01/15 08:17:32;;;;;;;40.97;13.93;;;;;;;1.68;97.30;102791.50;5031490;28;20029;-77
2022/01/15 08:19:57;;;;;;;53.40;14.55;;;;;;;1.65;97.19;102788.00;5030545;28;20041;-77
2022/01/15 08:22:22;;;;;;;62.92;14.85;;;;;;;1.61;96.91;102776.56;5030743;28;20033;-77
2022/01/15 08:24:50;;;;;;;81.72;15.63;;;;;;;1.62;97.37;102778.28;5032293;28;20502;-77
2022/01/15 08:27:15;;;;;;;70.00;14.98;;;;;;;1.62;97.49;102777.44;5040540;28;20028;-77
2022/01/15 08:29:40;;;;;;;57.03;15.90;;;;;;;1.60;97.67;102774.78;5042703;28;20999;-77
2022/01/15 08:32:06;;;;;;;38.45;16.70;;;;;;;1.59;97.81;102773.00;5032329;28;20056;-77
2022/01/15 08:34:31;;;;;;;44.40;15.95;;;;;;;1.60;97.86;102777.44;5030182;28;20044;-77
2022/01/15 08:36:56;;;;;;;99.03;18.98;;;;;;;1.57;97.52;102772.16;5030429;28;20037;-77
2022/01/15 08:39:21;;;;;;;46.63;17.45;;;;;;;1.56;97.77;102773.03;5029808;28;20466;-77
2022/01/15 08:41:48;;;;;;;53.75;17.70;;;;;;;1.55;97.65;102771.25;5026138;28;20049;-77
2022/01/15 08:44:22;;;;;;;57.45;16.75;;;;;;;1.52;97.51;102777.47;5031802;28;20151;-77
2022/01/15 08:46:48;;;;;;;44.53;16.08;;;;;;;1.52;97.63;102777.47;5043602;28;20115;-76
2022/01/15 08:49:13;;;;;;;34.63;15.10;;;;;;;1.56;97.63;102780.97;5036293;28;20147;-77
2022/01/15 08:51:38;;;;;;;32.65;15.75;;;;;;;1.50;97.26;102776.59;5037098;28;20041;-77
2022/01/15 08:54:04;;;;;;;43.22;17.52;;;;;;;1.50;96.67;102775.72;5031477;28;20033;-76
2022/01/15 08:56:29;;;;;;;70.75;17.83;;;;;;;1.45;96.41;102775.75;5027923;28;20120;-77
2022/01/15 08:58:54;;;;;;;62.20;18.13;;;;;;;1.43;96.60;102773.97;5025455;28;20040;-77
2022/01/15 09:01:20;;;;;;;52.90;17.95;;;;;;;1.43;96.75;102772.19;5028341;28;20033;-77
2022/01/15 09:03:45;;;;;;;75.50;20.15;;;;;;;1.40;96.69;102781.03;5029961;28;20033;-77
2022/01/15 09:06:11;;;;;;;48.42;16.73;;;;;;;1.43;97.19;102781.94;5029160;28;20026;-77
2022/01/15 09:08:36;;;;;;;53.33;18.40;;;;;;;1.40;96.66;102781.03;5017024;28;20045;-77
2022/01/15 09:11:02;;;;;;;35.58;16.83;;;;;;;1.42;97.13;102766.91;5030276;28;20231;-76
2022/01/15 09:13:29;;;;;;;51.53;18.55;;;;;;;1.42;96.76;102764.25;5017866;28;20064;-77
2022/01/15 09:15:54;;;;;;;31.70;15.57;;;;;;;1.43;96.96;102764.25;5029724;28;20120;-77
2022/01/15 09:18:20;;;;;;;45.65;20.63;;;;;;;1.45;97.16;102764.25;5027333;28;20166;-77
2022/01/15 09:20:46;;;;;;;50.08;19.40;;;;;;;1.44;96.93;102758.06;5049557;28;20013;-77
2022/01/15 09:23:12;;;;;;;51.90;19.00;;;;;;;1.46;96.88;102761.59;5049565;28;20031;-77
2022/01/15 09:25:37;;;;;;;43.88;18.02;;;;;;;1.46;96.98;102758.06;5050462;28;20025;-77
2022/01/15 09:30:47;;;;;;;61.30;20.60;;;;;;;1.49;96.93;102753.63;5023204;28;20404;-77
2022/01/15 09:33:12;;;;;;;70.32;20.08;;;;;;;1.50;97.38;102747.44;5029128;28;20029;-77
2022/01/15 09:35:37;;;;;;;45.50;20.02;;;;;;;1.53;97.57;102747.41;5028287;28;20057;-77
2022/01/15 09:38:03;;;;;;;37.47;18.15;;;;;;;1.56;97.36;102746.53;5025220;28;20128;-78
2022/01/15 09:40:28;;;;;;;41.28;20.48;;;;;;;1.56;97.33;102743.88;5028856;28;20017;-77
2022/01/15 09:42:55;;;;;;;37.33;20.95;;;;;;;1.57;96.97;102741.22;5028789;28;20083;-77
2022/01/15 09:45:22;;;;;;;47.58;20.42;;;;;;;1.59;97.36;102737.69;5027222;28;20064;-78
2022/01/15 09:47:57;;;;;;;37.25;18.95;;;;;;;1.62;97.22;102737.66;5026230;28;20025;-77
2022/01/15 09:50:24;;;;;;;38.00;19.58;;;;;;;1.61;97.05;102739.44;5026555;28;20082;-76
2022/01/15 09:52:50;;;;;;;43.72;20.48;;;;;;;1.61;96.82;102746.50;5027754;28;21343;-75
2022/01/15 09:55:15;;;;;;;47.92;21.70;;;;;;;1.60;96.77;102747.38;5027281;28;20029;-77
2022/01/15 09:57:41;;;;;;;60.05;21.35;;;;;;;1.63;97.14;102739.44;5024718;28;20200;-77
2022/01/15 10:00:15;;;;;;;39.60;21.00;;;;;;;1.66;96.75;102734.13;5027598;28;20021;-76
2022/01/15 10:02:43;;;;;;;51.08;21.45;;;;;;;1.63;96.45;102735.00;5028335;28;20029;-76
2022/01/15 10:05:09;;;;;;;41.35;21.70;;;;;;;1.65;96.48;102743.81;5023228;28;20132;-76
2022/01/15 10:07:35;;;;;;;43.03;20.85;;;;;;;1.66;97.26;102742.06;5026231;28;20165;-76
2022/01/15 10:10:15;;;;;;;41.08;22.30;;;;;;;1.70;97.27;102749.13;5022849;28;20140;-76
2022/01/15 10:12:43;;;;;;;40.53;21.35;;;;;;;1.68;96.86;102738.50;5026933;28;20068;-76
2022/01/15 10:15:08;;;;;;;37.58;21.85;;;;;;;1.69;96.54;102745.56;5027125;28;20438;-76
2022/01/15 10:17:35;;;;;;;51.28;23.38;;;;;;;1.70;96.76;102750.00;5028154;28;20064;-76
2022/01/15 10:20:08;;;;;;;41.00;22.45;;;;;;;1.72;97.19;102753.50;5026020;28;20083;-76
2022/01/15 10:22:37;;;;;;;42.67;22.48;;;;;;;1.73;97.05;102743.81;5027652;28;20109;-76
2022/01/15 10:25:10;;;;;;;54.47;25.30;;;;;;;1.74;97.18;102741.16;5029008;28;20025;-76
2022/01/15 10:27:41;;;;;;;41.50;23.25;;;;;;;1.77;97.50;102734.91;5027214;28;20033;-76
2022/01/15 10:30:17;;;;;;;44.42;22.60;;;;;;;1.81;97.24;102741.09;5045953;28;20488;-76
2022/01/15 10:33:02;;;;;;;45.45;23.63;;;;;;;1.82;97.21;102735.78;5024386;28;20112;-76
2022/01/15 10:35:33;;;;;;;45.60;24.55;;;;;;;1.83;97.14;102728.69;5015727;28;20147;-76
2022/01/15 10:38:04;;;;;;;41.80;23.88;;;;;;;1.84;97.20;102731.34;5008273;28;20061;-76
2022/01/15 10:40:45;;;;;;;39.60;23.45;;;;;;;1.88;97.11;102727.78;5010289;28;20028;-76
2022/01/15 10:43:12;;;;;;;53.08;26.80;;;;;;;1.87;97.27;102730.44;5023946;28;20106;-76
2022/01/15 10:45:55;;;;;;;58.10;27.05;;;;;;;1.94;97.83;102726.88;5021664;28;20034;-76
2022/01/15 10:48:25;;;;;;;47.20;25.27;;;;;;;1.98;97.85;102733.91;5010477;28;20064;-76
2022/01/15 10:50:57;;;;;;;;;;;;;;;2.08;97.56;102734.75;5008493;28;20390;-76
2022/01/15 10:53:42;;;;;;;43.47;23.02;;;;;;;2.05;97.27;102735.63;5026210;28;19923;-76
2022/01/15 10:56:11;;;;;;;62.47;22.95;;;;;;;2.04;97.11;102733.00;5020782;28;21375;-76
2022/01/15 10:58:37;;;;;;;51.20;24.85;;;;;;;2.04;97.12;102723.25;5029814;28;20492;-76
2022/01/15 11:01:03;;;;;;;48.50;25.42;;;;;;;2.03;96.82;102717.97;5019201;28;20034;-76
2022/01/15 11:03:38;;;;;;;45.78;23.23;;;;;;;2.06;96.38;102718.81;5016297;28;20029;-75
2022/01/15 11:06:05;;;;;;;55.83;25.73;;;;;;;2.08;96.89;102709.09;5016169;28;20032;-76
2022/01/15 11:08:34;;;;;;;43.53;23.95;;;;;;;2.09;96.54;102705.56;5023201;28;20394;-75
2022/01/15 11:11:06;;;;;;;51.97;29.33;;;;;;;2.10;96.63;102709.06;5017437;28;20128;-75
2022/01/15 11:13:32;;;;;;;50.90;29.15;;;;;;;2.10;96.77;102703.78;5016676;28;20033;-75
2022/01/15 11:16:04;;;;;;;59.33;30.90;;;;;;;2.12;97.04;102699.31;5027629;28;20458;-75
2022/01/15 11:18:34;;;;;;;46.53;25.70;;;;;;;2.14;97.30;102700.19;5014899;28;20038;-76
2022/01/15 11:21:03;;;;;;;49.22;29.85;;;;;;;2.16;97.08;102700.19;5006400;28;20025;-76
2022/01/15 11:23:30;;;;;;;46.25;24.92;;;;;;;2.18;97.37;102699.28;5015478;28;20402;-76
2022/01/15 11:26:02;;;;;;;40.53;20.45;;;;;;;2.20;96.99;102699.28;5019466;28;20037;-76
2022/01/15 11:28:30;;;;;;;42.72;22.77;;;;;;;2.19;96.40;102706.34;5012617;28;20034;-76
2022/01/15 11:30:57;;;;;;;38.97;21.55;;;;;;;2.17;95.70;102694.00;5021327;28;20032;-76
2022/01/15 11:33:28;;;;;;;40.72;21.20;;;;;;;2.16;96.04;102692.22;5012585;28;20044;-76
2022/01/15 11:35:53;;;;;;;46.42;22.65;;;;;;;2.15;95.62;102690.47;5026695;28;20033;-76